createdAt,value
2022-08-01T00:00:10.675Z,21.60
2022-08-01T00:02:41.343Z,21.60
2022-08-01T00:05:09.542Z,21.60
2022-08-01T00:07:36.485Z,21.70
2022-08-01T00:10:09.944Z,21.70
2022-08-01T00:12:37.299Z,21.80
2022-08-01T00:15:06.491Z,21.70
2022-08-01T00:17:33.820Z,21.70
2022-08-01T00:20:01.110Z,21.70
2022-08-01T00:22:27.922Z,21.70
2022-08-01T00:24:55.002Z,21.70
2022-08-01T00:27:21.916Z,21.70
2022-08-01T00:30:11.811Z,21.60
2022-08-01T00:32:35.656Z,21.60
2022-08-01T00:35:02.484Z,21.40
2022-08-01T00:37:29.357Z,21.30
2022-08-01T00:39:56.221Z,21.10
2022-08-01T00:42:23.382Z,21.20
2022-08-01T00:44:50.254Z,21.20
2022-08-01T00:47:17.114Z,21.10
2022-08-01T00:49:44.239Z,21.10
2022-08-01T00:52:11.524Z,21.00
2022-08-01T00:54:38.538Z,21.00
2022-08-01T00:57:08.571Z,20.90
2022-08-01T00:59:37.708Z,20.80
2022-08-01T01:02:14.668Z,20.80
2022-08-01T01:04:42.870Z,20.90
2022-08-01T01:07:22.579Z,20.90
2022-08-01T01:10:08.490Z,20.80
2022-08-01T01:12:38.894Z,20.80
2022-08-01T01:15:29.915Z,20.70
2022-08-01T01:18:03.343Z,20.70
2022-08-01T01:20:43.459Z,20.60
2022-08-01T01:23:34.314Z,20.50
2022-08-01T01:26:38.460Z,20.40
2022-08-01T01:29:10.127Z,20.40
2022-08-01T01:31:45.772Z,20.40
2022-08-01T01:34:14.179Z,20.40
2022-08-01T01:36:43.020Z,20.30
2022-08-01T01:39:10.758Z,20.40
2022-08-01T01:41:39.675Z,20.20
2022-08-01T01:44:07.543Z,20.10
2022-08-01T01:46:35.016Z,20.20
2022-08-01T01:49:02.701Z,20.20
2022-08-01T01:51:30.671Z,20.00
2022-08-01T01:53:59.502Z,20.10
2022-08-01T01:56:27.884Z,20.10
2022-08-01T01:59:01.657Z,20.00
2022-08-01T02:01:38.686Z,19.90
2022-08-01T02:04:20.996Z,20.10
2022-08-01T02:06:50.860Z,20.00
2022-08-01T02:09:20.671Z,20.10
2022-08-01T02:12:07.352Z,20.10
2022-08-01T02:14:36.704Z,20.00
2022-08-01T02:17:07.004Z,19.80
2022-08-01T02:19:38.203Z,19.70
2022-08-01T02:22:33.317Z,19.60
2022-08-01T02:25:16.514Z,19.60
2022-08-01T02:27:48.700Z,19.60
2022-08-01T02:30:16.788Z,19.50
2022-08-01T02:32:51.071Z,19.50
2022-08-01T02:36:29.009Z,19.70
2022-08-01T02:38:29.627Z,19.70
2022-08-01T02:41:00.792Z,19.70
2022-08-01T02:43:31.094Z,19.60
2022-08-01T02:46:03.712Z,19.50
2022-08-01T02:48:33.598Z,19.40
2022-08-01T02:51:02.787Z,19.40
2022-08-01T02:53:43.895Z,19.40
2022-08-01T02:56:12.899Z,19.40
2022-08-01T02:58:41.665Z,19.40
2022-08-01T03:01:10.978Z,19.30
2022-08-01T03:03:38.800Z,19.40
2022-08-01T03:06:06.839Z,19.30
2022-08-01T03:08:35.878Z,19.20
2022-08-01T03:11:04.357Z,19.30
2022-08-01T03:13:33.303Z,19.30
2022-08-01T03:16:01.878Z,19.10
2022-08-01T03:18:31.076Z,19.10
2022-08-01T03:21:00.791Z,19.20
2022-08-01T03:23:37.659Z,19.20
2022-08-01T03:26:06.740Z,19.10
2022-08-01T03:28:34.325Z,19.00
2022-08-01T03:31:02.961Z,19.00
2022-08-01T03:33:30.330Z,19.10
2022-08-01T03:36:00.167Z,19.10
2022-08-01T03:38:30.152Z,18.90
2022-08-01T03:41:03.309Z,18.80
2022-08-01T03:43:37.609Z,18.90
2022-08-01T03:46:11.180Z,18.80
2022-08-01T03:48:43.845Z,18.70
2022-08-01T03:51:13.378Z,18.70
2022-08-01T03:53:43.217Z,18.70
2022-08-01T03:56:12.062Z,18.70
2022-08-01T03:58:41.056Z,18.70
2022-08-01T04:01:16.051Z,18.70
2022-08-01T04:03:44.649Z,18.70
2022-08-01T04:06:11.638Z,18.80
2022-08-01T04:08:40.115Z,18.70
2022-08-01T04:11:08.863Z,18.80
2022-08-01T04:13:37.084Z,18.90
2022-08-01T04:16:04.403Z,18.80
2022-08-01T04:18:31.265Z,18.90
2022-08-01T04:20:58.878Z,18.90
2022-08-01T04:23:28.510Z,19.00
2022-08-01T04:25:56.432Z,19.10
2022-08-01T04:28:24.641Z,19.10
2022-08-01T04:30:59.710Z,19.10
2022-08-01T04:33:30.994Z,19.20
2022-08-01T04:36:03.944Z,19.30
2022-08-01T04:38:37.684Z,19.50
2022-08-01T04:41:09.287Z,19.50
2022-08-01T04:43:37.725Z,19.60
2022-08-01T04:46:05.100Z,19.70
2022-08-01T04:48:35.369Z,19.80
2022-08-01T04:51:02.234Z,19.80
2022-08-01T04:53:29.184Z,19.90
2022-08-01T04:55:56.678Z,19.90
2022-08-01T04:58:23.574Z,19.90
2022-08-01T05:00:50.554Z,19.90
2022-08-01T05:03:17.869Z,19.90
2022-08-01T05:05:44.841Z,19.90
2022-08-01T05:08:11.699Z,19.90
2022-08-01T05:10:38.723Z,19.90
2022-08-01T05:13:05.528Z,20.10
2022-08-01T05:15:32.454Z,20.20
2022-08-01T05:17:59.297Z,20.10
2022-08-01T05:20:26.278Z,20.10
2022-08-01T05:22:53.160Z,20.20
2022-08-01T05:25:55.887Z,20.30
2022-08-01T05:28:07.255Z,20.50
2022-08-01T05:30:35.504Z,20.60
2022-08-01T05:33:02.730Z,20.70
2022-08-01T05:35:47.842Z,20.80
2022-08-01T05:38:16.418Z,21.00
2022-08-01T05:40:43.466Z,21.20
2022-08-01T05:43:10.435Z,21.40
2022-08-01T05:45:37.869Z,21.50
2022-08-01T05:48:05.116Z,21.40
2022-08-01T05:50:33.435Z,21.50
2022-08-01T05:53:00.243Z,21.60
2022-08-01T05:55:27.408Z,21.80
2022-08-01T05:57:54.250Z,21.90
2022-08-01T06:00:21.162Z,22.00
2022-08-01T06:02:48.003Z,22.20
2022-08-01T06:05:14.803Z,22.40
2022-08-01T06:07:41.831Z,22.60
2022-08-01T06:10:09.377Z,22.70
2022-08-01T06:12:36.987Z,22.80
2022-08-01T06:15:05.645Z,22.60
2022-08-01T06:17:32.510Z,22.90
2022-08-01T06:20:00.342Z,22.90
2022-08-01T06:22:27.484Z,22.90
2022-08-01T06:24:55.234Z,22.90
2022-08-01T06:27:22.784Z,23.10
2022-08-01T06:29:53.294Z,23.40
2022-08-01T06:32:26.670Z,23.50
2022-08-01T06:34:55.878Z,23.60
2022-08-01T06:37:23.887Z,23.70
2022-08-01T06:39:51.094Z,23.90
2022-08-01T06:42:18.564Z,23.90
2022-08-01T06:44:46.035Z,24.00
2022-08-01T06:47:13.022Z,23.70
2022-08-01T06:49:39.943Z,23.90
2022-08-01T06:52:07.120Z,24.00
2022-08-01T06:54:34.525Z,24.20
2022-08-01T06:57:01.488Z,24.20
2022-08-01T06:59:28.296Z,24.20
2022-08-01T07:01:55.180Z,24.00
2022-08-01T07:04:22.007Z,24.10
2022-08-01T07:06:48.967Z,23.70
2022-08-01T07:09:15.774Z,23.40
2022-08-01T07:11:42.684Z,23.10
2022-08-01T07:14:09.723Z,23.00
2022-08-01T07:16:36.672Z,23.00
2022-08-01T07:19:03.592Z,23.00
2022-08-01T07:21:40.330Z,23.10
2022-08-01T07:24:15.389Z,23.20
2022-08-01T07:26:53.358Z,23.50
2022-08-01T07:29:25.400Z,23.80
2022-08-01T07:31:56.801Z,24.10
2022-08-01T07:34:24.722Z,24.30
2022-08-01T07:36:52.654Z,24.30
2022-08-01T07:39:19.999Z,24.20
2022-08-01T07:42:05.463Z,24.50
2022-08-01T07:44:33.968Z,24.70
2022-08-01T07:47:00.838Z,25.10
2022-08-01T07:49:27.782Z,25.30
2022-08-01T07:52:04.148Z,25.10
2022-08-01T07:54:40.528Z,25.10
2022-08-01T07:57:08.295Z,24.90
2022-08-01T07:59:35.470Z,24.70
2022-08-01T08:02:02.748Z,24.50
2022-08-01T08:04:29.843Z,24.70
2022-08-01T08:06:56.785Z,24.90
2022-08-01T08:09:24.111Z,25.00
2022-08-01T08:11:51.001Z,25.30
2022-08-01T08:14:18.603Z,25.50
2022-08-01T08:16:46.377Z,25.90
2022-08-01T08:19:13.383Z,26.30
2022-08-01T08:21:40.600Z,26.10
2022-08-01T08:24:20.454Z,25.90
2022-08-01T08:26:57.535Z,26.30
2022-08-01T08:29:25.656Z,26.70
2022-08-01T08:31:55.644Z,26.70
2022-08-01T08:34:24.372Z,26.90
2022-08-01T08:36:51.790Z,27.10
2022-08-01T08:39:19.783Z,27.10
2022-08-01T08:41:49.546Z,26.80
2022-08-01T08:44:17.874Z,26.80
2022-08-01T08:46:47.645Z,26.80
2022-08-01T08:49:21.505Z,27.40
2022-08-01T08:51:51.025Z,27.90
2022-08-01T08:54:21.619Z,28.40
2022-08-01T08:56:48.940Z,29.00
2022-08-01T08:59:16.093Z,29.00
2022-08-01T09:01:43.479Z,29.60
2022-08-01T09:04:10.986Z,29.90
2022-08-01T09:06:38.321Z,29.90
2022-08-01T09:09:06.256Z,30.00
2022-08-01T09:11:33.273Z,30.20
2022-08-01T09:14:04.298Z,31.70
2022-08-01T09:16:32.711Z,32.40
2022-08-01T09:19:16.280Z,32.40
2022-08-01T09:22:00.671Z,31.20
2022-08-01T09:24:31.781Z,32.10
2022-08-01T09:26:59.871Z,31.60
2022-08-01T09:29:38.132Z,31.40
2022-08-01T09:32:13.910Z,31.10
2022-08-01T09:34:43.226Z,30.30
2022-08-01T09:37:10.637Z,29.50
2022-08-01T09:39:41.184Z,29.50
2022-08-01T09:42:29.069Z,30.60
2022-08-01T09:44:56.902Z,30.50
2022-08-01T09:47:38.771Z,31.00
2022-08-01T09:50:11.010Z,31.40
2022-08-01T09:52:40.888Z,31.40
2022-08-01T09:55:08.776Z,30.30
2022-08-01T09:57:35.723Z,29.90
2022-08-01T10:00:04.569Z,30.70
2022-08-01T10:02:41.677Z,31.70
2022-08-01T10:05:21.164Z,33.40
2022-08-01T10:08:00.717Z,34.00
2022-08-01T10:10:29.268Z,34.20
2022-08-01T10:12:59.925Z,34.30
2022-08-01T10:15:36.754Z,34.90
2022-08-01T10:18:16.092Z,34.60
2022-08-01T10:20:56.369Z,35.70
2022-08-01T10:23:40.592Z,37.00
2022-08-01T10:26:10.224Z,35.90
2022-08-01T10:28:39.480Z,36.00
2022-08-01T10:31:12.518Z,37.20
2022-08-01T10:33:52.217Z,37.10
2022-08-01T10:36:25.550Z,35.80
2022-08-01T10:38:55.507Z,35.30
2022-08-01T10:41:23.242Z,34.40
2022-08-01T10:43:50.157Z,33.60
2022-08-01T10:46:19.105Z,33.50
2022-08-01T10:48:56.725Z,33.70
2022-08-01T10:51:51.432Z,33.20
2022-08-01T10:54:13.532Z,32.40
2022-08-01T10:56:49.551Z,32.00
2022-08-01T10:59:50.079Z,31.30
2022-08-01T11:02:34.425Z,31.10
2022-08-01T11:05:04.397Z,31.60
2022-08-01T11:07:45.045Z,32.20
2022-08-01T11:10:18.036Z,31.90
2022-08-01T11:12:45.273Z,31.90
2022-08-01T11:15:12.148Z,31.50
2022-08-01T11:17:45.260Z,31.10
2022-08-01T11:20:22.360Z,31.00
2022-08-01T11:23:03.174Z,30.90
2022-08-01T11:26:03.092Z,30.80
2022-08-01T11:28:36.583Z,30.40
2022-08-01T11:31:11.268Z,30.90
2022-08-01T11:33:42.297Z,31.20
2022-08-01T11:36:14.508Z,31.30
2022-08-01T11:38:59.966Z,31.40
2022-08-01T11:41:37.949Z,31.90
2022-08-01T11:44:12.954Z,31.50
2022-08-01T11:46:55.139Z,31.60
2022-08-01T11:49:29.354Z,30.80
2022-08-01T11:52:11.641Z,30.60
2022-08-01T11:54:43.248Z,29.70
2022-08-01T11:57:16.020Z,29.40
2022-08-01T12:00:02.482Z,29.50
2022-08-01T12:02:39.235Z,29.00
2022-08-01T12:05:15.420Z,29.30
2022-08-01T12:07:44.141Z,29.90
2022-08-01T12:10:15.239Z,30.30
2022-08-01T12:12:53.627Z,30.40
2022-08-01T12:15:23.912Z,30.60
2022-08-01T12:17:59.493Z,31.20
2022-08-01T12:20:31.437Z,32.40
2022-08-01T12:23:06.630Z,33.30
2022-08-01T12:25:33.569Z,34.20
2022-08-01T12:28:02.576Z,34.20
2022-08-01T12:30:31.825Z,33.50
2022-08-01T12:32:59.341Z,34.70
2022-08-01T12:35:28.114Z,35.60
2022-08-01T12:38:03.711Z,35.00
2022-08-01T12:40:34.054Z,34.30
2022-08-01T12:43:06.705Z,36.60
2022-08-01T12:45:36.771Z,38.60
2022-08-01T12:48:09.536Z,40.80
2022-08-01T12:50:39.236Z,42.40
2022-08-01T12:53:07.129Z,42.70
2022-08-01T12:55:35.091Z,42.80
2022-08-01T12:58:15.867Z,42.80
2022-08-01T13:00:45.632Z,42.60
2022-08-01T13:03:16.129Z,42.30
2022-08-01T13:05:58.072Z,41.80
2022-08-01T13:08:30.608Z,40.10
2022-08-01T13:11:06.293Z,40.40
2022-08-01T13:13:48.406Z,39.90
2022-08-01T13:16:30.331Z,37.90
2022-08-01T13:19:05.770Z,36.80
2022-08-01T13:21:34.477Z,36.60
2022-08-01T13:24:26.613Z,36.60
2022-08-01T13:26:59.421Z,35.90
2022-08-01T13:29:34.990Z,36.00
2022-08-01T13:32:28.421Z,35.50
2022-08-01T13:35:08.445Z,37.40
2022-08-01T13:37:37.255Z,38.80
2022-08-01T13:40:09.947Z,37.00
2022-08-01T13:42:37.510Z,37.10
2022-08-01T13:45:13.871Z,39.20
2022-08-01T13:48:03.295Z,42.10
2022-08-01T13:50:29.594Z,43.40
2022-08-01T13:52:56.430Z,43.70
2022-08-01T13:55:23.327Z,44.00
2022-08-01T13:57:51.035Z,44.10
2022-08-01T14:00:18.013Z,43.30
2022-08-01T14:02:44.782Z,44.50
2022-08-01T14:05:12.127Z,41.30
2022-08-01T14:07:39.251Z,39.70
2022-08-01T14:10:19.505Z,38.60
2022-08-01T14:12:48.614Z,37.20
2022-08-01T14:15:18.627Z,37.90
2022-08-01T14:18:02.653Z,40.20
2022-08-01T14:20:29.823Z,41.90
2022-08-01T14:22:56.630Z,40.70
2022-08-01T14:25:57.844Z,38.20
2022-08-01T14:28:11.280Z,36.90
2022-08-01T14:30:38.282Z,35.20
2022-08-01T14:33:05.378Z,34.10
2022-08-01T14:36:05.151Z,34.00
2022-08-01T14:38:21.895Z,33.50
2022-08-01T14:40:59.345Z,33.20
2022-08-01T14:43:32.440Z,32.50
2022-08-01T14:46:05.024Z,31.90
2022-08-01T14:48:32.589Z,31.80
2022-08-01T14:51:03.377Z,32.30
2022-08-01T14:53:30.913Z,33.00
2022-08-01T14:55:57.664Z,35.80
2022-08-01T14:58:24.495Z,37.80
2022-08-01T15:00:58.651Z,37.30
2022-08-01T15:03:26.440Z,35.80
2022-08-01T15:05:53.427Z,35.40
2022-08-01T15:08:20.197Z,35.70
2022-08-01T15:10:46.979Z,35.50
2022-08-01T15:13:13.771Z,34.50
2022-08-01T15:15:40.538Z,33.80
2022-08-01T15:18:07.401Z,32.90
2022-08-01T15:20:34.265Z,32.50
2022-08-01T15:23:01.305Z,32.50
2022-08-01T15:25:40.503Z,32.10
2022-08-01T15:28:12.072Z,31.50
2022-08-01T15:30:39.895Z,31.00
2022-08-01T15:33:07.065Z,31.00
2022-08-01T15:35:33.968Z,30.50
2022-08-01T15:38:01.154Z,30.60
2022-08-01T15:40:29.202Z,30.50
2022-08-01T15:42:56.135Z,30.90
2022-08-01T15:45:46.281Z,30.90
2022-08-01T15:48:10.073Z,31.10
2022-08-01T15:50:39.148Z,31.00
2022-08-01T15:53:07.228Z,31.00
2022-08-01T15:55:38.225Z,31.50
2022-08-01T15:58:06.062Z,33.20
2022-08-01T16:00:38.722Z,33.20
2022-08-01T16:03:07.572Z,32.70
2022-08-01T16:05:41.046Z,32.10
2022-08-01T16:08:11.865Z,31.60
2022-08-01T16:10:38.660Z,31.10
2022-08-01T16:13:07.174Z,31.10
2022-08-01T16:15:38.230Z,30.80
2022-08-01T16:18:09.837Z,30.30
2022-08-01T16:20:42.837Z,30.10
2022-08-01T16:23:12.126Z,29.90
2022-08-01T16:25:38.993Z,29.80
2022-08-01T16:28:06.014Z,29.50
2022-08-01T16:30:32.950Z,29.20
2022-08-01T16:33:06.147Z,29.00
2022-08-01T16:35:44.525Z,28.90
2022-08-01T16:38:13.881Z,28.80
2022-08-01T16:40:46.704Z,28.80
2022-08-01T16:43:15.343Z,28.70
2022-08-01T16:45:44.936Z,28.70
2022-08-01T16:48:12.879Z,28.60
2022-08-01T16:50:40.123Z,28.70
2022-08-01T16:53:06.970Z,28.70
2022-08-01T16:55:49.805Z,28.30
2022-08-01T16:58:27.615Z,28.10
2022-08-01T17:00:57.453Z,28.30
2022-08-01T17:03:52.640Z,28.40
2022-08-01T17:06:13.168Z,28.40
2022-08-01T17:08:46.493Z,28.10
2022-08-01T17:11:14.756Z,28.10
2022-08-01T17:13:41.840Z,28.20
2022-08-01T17:16:09.445Z,28.20
2022-08-01T17:18:36.221Z,28.20
2022-08-01T17:21:03.174Z,28.10
2022-08-01T17:23:31.688Z,28.00
2022-08-01T17:25:59.606Z,27.90
2022-08-01T17:28:26.592Z,27.80
2022-08-01T17:30:53.672Z,27.80
2022-08-01T17:33:21.097Z,27.90
2022-08-01T17:35:48.201Z,27.80
2022-08-01T17:38:15.119Z,27.70
2022-08-01T17:40:42.024Z,27.80
2022-08-01T17:43:09.011Z,27.60
2022-08-01T17:45:39.389Z,27.50
2022-08-01T17:48:19.227Z,27.30
2022-08-01T17:50:49.111Z,27.30
2022-08-01T17:53:21.022Z,27.10
2022-08-01T17:55:55.374Z,27.10
2022-08-01T17:58:49.173Z,27.00
2022-08-01T18:01:13.089Z,26.80
2022-08-01T18:03:40.912Z,26.60
2022-08-01T18:06:09.190Z,26.50
2022-08-01T18:08:36.265Z,26.50
2022-08-01T18:11:03.108Z,26.50
2022-08-01T18:13:30.002Z,26.30
2022-08-01T18:15:57.237Z,26.20
2022-08-01T18:18:33.702Z,26.20
2022-08-01T18:21:04.374Z,26.10
2022-08-01T18:23:33.476Z,26.00
2022-08-01T18:26:02.057Z,26.00
2022-08-01T18:28:35.158Z,25.90
2022-08-01T18:31:03.866Z,25.80
2022-08-01T18:33:31.080Z,25.80
2022-08-01T18:36:03.671Z,25.60
2022-08-01T18:38:33.133Z,25.40
2022-08-01T18:41:01.016Z,25.40
2022-08-01T18:43:28.130Z,25.30
2022-08-01T18:45:57.102Z,25.30
2022-08-01T18:48:24.283Z,25.30
2022-08-01T18:50:51.153Z,25.20
2022-08-01T18:53:18.777Z,25.30
2022-08-01T18:55:45.728Z,25.30
2022-08-01T18:58:12.659Z,25.20
2022-08-01T19:00:39.939Z,25.30
2022-08-01T19:03:07.688Z,25.20
2022-08-01T19:05:35.843Z,25.20
2022-08-01T19:08:05.181Z,25.30
2022-08-01T19:10:38.530Z,25.30
2022-08-01T19:13:05.630Z,25.10
2022-08-01T19:15:32.500Z,25.00
2022-08-01T19:17:59.740Z,24.90
2022-08-01T19:20:27.955Z,24.60
2022-08-01T19:22:55.606Z,24.70
2022-08-01T19:25:22.685Z,24.50
2022-08-01T19:27:50.205Z,24.40
2022-08-01T19:30:19.075Z,24.20
2022-08-01T19:32:48.671Z,24.30
2022-08-01T19:35:17.265Z,24.20
2022-08-01T19:37:47.025Z,24.10
2022-08-01T19:40:27.838Z,24.20
2022-08-01T19:42:56.740Z,24.10
2022-08-01T19:45:24.778Z,24.20
2022-08-01T19:47:56.344Z,24.00
2022-08-01T19:50:25.250Z,24.10
2022-08-01T19:52:52.697Z,24.10
2022-08-01T19:55:20.327Z,24.00
2022-08-01T19:57:59.412Z,24.00
2022-08-01T20:00:40.107Z,23.90
2022-08-01T20:03:08.969Z,24.10
2022-08-01T20:05:37.214Z,24.00
2022-08-01T20:08:06.833Z,23.80
2022-08-01T20:10:34.290Z,23.70
2022-08-01T20:13:02.325Z,23.70
2022-08-01T20:15:29.977Z,23.60
2022-08-01T20:18:00.926Z,23.40
2022-08-01T20:20:28.236Z,23.50
2022-08-01T20:22:58.514Z,23.40
2022-08-01T20:25:37.363Z,23.50
2022-08-01T20:28:11.973Z,23.50
2022-08-01T20:30:40.256Z,23.50
2022-08-01T20:33:08.853Z,23.40
2022-08-01T20:35:52.423Z,23.40
2022-08-01T20:38:23.897Z,23.40
2022-08-01T20:40:58.527Z,23.30
2022-08-01T20:43:28.678Z,23.30
2022-08-01T20:45:56.695Z,23.30
2022-08-01T20:48:26.344Z,23.40
2022-08-01T20:51:12.458Z,23.30
2022-08-01T20:53:43.116Z,23.30
2022-08-01T20:56:22.125Z,23.10
2022-08-01T20:58:58.575Z,23.10
2022-08-01T21:01:32.764Z,23.10
2022-08-01T21:04:08.634Z,23.00
2022-08-01T21:06:45.175Z,23.00
2022-08-01T21:09:20.205Z,22.90
2022-08-01T21:11:57.280Z,22.90
2022-08-01T21:14:35.413Z,22.90
2022-08-01T21:17:09.677Z,22.70
2022-08-01T21:19:38.349Z,22.70
2022-08-01T21:22:15.650Z,22.80
2022-08-01T21:24:58.477Z,22.80
2022-08-01T21:27:32.901Z,22.70
2022-08-01T21:30:06.038Z,22.70
2022-08-01T21:32:35.107Z,22.60
2022-08-01T21:35:04.659Z,22.50
2022-08-01T21:37:31.832Z,22.50
2022-08-01T21:40:02.752Z,22.50
2022-08-01T21:42:38.524Z,22.60
2022-08-01T21:45:09.429Z,22.60
2022-08-01T21:47:37.371Z,22.50
2022-08-01T21:50:05.431Z,22.60
2022-08-01T21:53:16.029Z,22.70
2022-08-01T21:56:02.258Z,22.70
2022-08-01T21:58:54.676Z,22.70
2022-08-01T22:01:31.907Z,22.70
2022-08-01T22:04:01.944Z,22.80
2022-08-01T22:06:32.997Z,22.60
2022-08-01T22:09:04.865Z,22.60
2022-08-01T22:11:34.984Z,22.50
2022-08-01T22:14:06.214Z,22.40
2022-08-01T22:16:33.909Z,22.40
2022-08-01T22:19:02.952Z,22.30
2022-08-01T22:21:30.412Z,22.30
2022-08-01T22:23:59.014Z,22.30
2022-08-01T22:26:29.414Z,22.20
2022-08-01T22:28:57.685Z,22.40
2022-08-01T22:31:24.590Z,22.40
2022-08-01T22:33:51.957Z,22.40
2022-08-01T22:36:19.914Z,22.40
2022-08-01T22:38:46.861Z,22.30
2022-08-01T22:41:25.263Z,22.40
2022-08-01T22:44:08.011Z,22.30
2022-08-01T22:46:48.480Z,22.10
2022-08-01T22:49:30.407Z,22.00
2022-08-01T22:52:22.333Z,21.90
2022-08-01T22:55:07.443Z,21.80
2022-08-01T22:58:15.105Z,21.70
2022-08-01T23:00:43.558Z,21.60
2022-08-01T23:03:20.245Z,21.50
2022-08-01T23:06:04.446Z,21.40
2022-08-01T23:08:34.725Z,21.20
2022-08-01T23:11:03.449Z,21.00
2022-08-01T23:13:30.895Z,21.00
2022-08-01T23:15:58.987Z,20.90
2022-08-01T23:18:26.376Z,20.80
2022-08-01T23:21:00.944Z,20.80
2022-08-01T23:23:30.488Z,20.70
2022-08-01T23:25:59.268Z,20.70
2022-08-01T23:28:27.762Z,20.70
2022-08-01T23:30:55.581Z,20.70
2022-08-01T23:33:22.661Z,20.70
2022-08-01T23:35:49.517Z,20.60
2022-08-01T23:38:16.922Z,20.40
2022-08-01T23:40:43.829Z,20.40
2022-08-01T23:43:16.554Z,20.30
2022-08-01T23:46:02.603Z,20.20
2022-08-01T23:48:35.082Z,20.20
2022-08-01T23:51:03.121Z,20.20
2022-08-01T23:53:31.031Z,20.20
2022-08-01T23:55:59.272Z,20.20
2022-08-01T23:58:29.570Z,20.40
